createdAt,value
2019-04-01T00:03:57.872Z,2.23
2019-04-01T00:08:59.236Z,2.10
2019-04-01T00:14:00.568Z,2.10
2019-04-01T00:19:03.246Z,1.80
2019-04-01T00:24:04.915Z,1.87
2019-04-01T00:29:06.353Z,2.03
2019-04-01T00:34:07.712Z,2.00
2019-04-01T00:39:09.069Z,2.00
2019-04-01T00:44:12.060Z,1.90
2019-04-01T00:49:13.397Z,2.77
2019-04-01T00:54:14.741Z,2.30
2019-04-01T00:59:16.113Z,1.77
2019-04-01T01:04:17.449Z,2.23
2019-04-01T01:09:18.821Z,1.83
2019-04-01T01:14:20.157Z,2.00
2019-04-01T01:19:21.532Z,2.37
2019-04-01T01:24:22.903Z,2.33
2019-04-01T01:29:24.264Z,2.57
2019-04-01T01:34:25.609Z,2.20
2019-04-01T01:39:27.080Z,2.33
2019-04-01T01:44:28.438Z,2.10
2019-04-01T01:49:29.793Z,2.50
2019-04-01T01:54:31.231Z,2.20
2019-04-01T01:59:32.584Z,2.10
2019-04-01T02:04:34.254Z,2.40
2019-04-01T02:09:35.589Z,1.97
2019-04-01T02:14:36.969Z,1.80
2019-04-01T02:19:38.316Z,2.80
2019-04-01T02:24:39.690Z,2.27
2019-04-01T02:29:41.071Z,2.13
2019-04-01T02:34:42.410Z,2.10
2019-04-01T02:39:43.783Z,2.20
2019-04-01T02:44:45.161Z,2.23
2019-04-01T02:49:46.532Z,1.77
2019-04-01T02:54:47.885Z,2.30
2019-04-01T02:59:49.219Z,1.90
2019-04-01T03:04:50.762Z,1.93
2019-04-01T03:09:52.139Z,2.30
2019-04-01T03:14:53.502Z,2.07
2019-04-01T03:19:54.871Z,2.13
2019-04-01T03:24:56.256Z,2.10
2019-04-01T03:29:57.614Z,2.23
2019-04-01T03:34:58.966Z,2.20
2019-04-01T03:40:00.700Z,1.90
2019-04-01T03:45:04.375Z,1.80
2019-04-01T03:50:06.579Z,2.20
2019-04-01T03:55:08.350Z,2.33
2019-04-01T04:00:10.294Z,2.00
2019-04-01T04:05:11.717Z,1.77
2019-04-01T04:10:13.235Z,1.60
2019-04-01T04:15:14.720Z,2.27
2019-04-01T04:20:16.168Z,1.97
2019-04-01T04:25:17.569Z,1.40
2019-04-01T04:30:20.021Z,2.10
2019-04-01T04:35:21.355Z,2.27
2019-04-01T04:40:22.816Z,2.00
2019-04-01T04:45:24.222Z,1.80
2019-04-01T04:50:25.592Z,2.07
2019-04-01T04:55:26.971Z,1.90
2019-04-01T05:00:28.301Z,1.80
2019-04-01T05:05:29.788Z,1.80
2019-04-01T05:10:31.242Z,2.50
2019-04-01T05:15:32.699Z,1.63
2019-04-01T05:20:34.260Z,2.10
2019-04-01T05:25:36.362Z,1.97
2019-04-01T05:30:39.353Z,2.67
2019-04-01T05:35:40.795Z,2.03
2019-04-01T05:40:42.566Z,2.07
2019-04-01T05:45:44.055Z,1.90
2019-04-01T05:50:45.413Z,1.63
2019-04-01T05:55:47.585Z,2.20
2019-04-01T06:00:51.134Z,1.80
2019-04-01T06:05:52.856Z,1.90
2019-04-01T06:10:54.405Z,2.10
2019-04-01T06:15:55.959Z,1.90
2019-04-01T06:20:57.915Z,2.10
2019-04-01T06:25:59.266Z,2.10
2019-04-01T06:31:00.838Z,2.70
2019-04-01T06:36:02.413Z,2.03
2019-04-01T06:41:03.749Z,2.20
2019-04-01T06:46:05.307Z,2.40
2019-04-01T06:51:06.744Z,3.07
2019-04-01T06:56:08.117Z,2.17
2019-04-01T07:01:09.541Z,2.70
2019-04-01T07:06:10.935Z,2.10
2019-04-01T07:11:12.395Z,2.43
2019-04-01T07:16:15.944Z,2.50
2019-04-01T07:21:17.480Z,2.10
2019-04-01T07:26:18.944Z,2.90
2019-04-01T07:31:20.392Z,2.23
2019-04-01T07:36:21.862Z,2.70
2019-04-01T07:41:23.289Z,2.60
2019-04-01T07:46:24.769Z,2.60
2019-04-01T07:51:26.106Z,3.47
2019-04-01T07:56:27.643Z,3.00
2019-04-01T08:01:29.220Z,2.60
2019-04-01T08:06:30.732Z,3.00
2019-04-01T08:11:32.194Z,3.20
2019-04-01T08:16:33.785Z,3.00
2019-04-01T08:21:35.215Z,2.90
2019-04-01T08:26:36.719Z,2.90
2019-04-01T08:31:38.177Z,3.07
2019-04-01T08:36:39.507Z,3.03
2019-04-01T08:41:41.300Z,3.70
2019-04-01T08:46:42.875Z,3.40
2019-04-01T08:51:44.211Z,3.77
2019-04-01T08:56:45.769Z,3.20
2019-04-01T09:01:47.093Z,4.03
2019-04-01T09:06:48.633Z,4.47
2019-04-01T09:11:52.710Z,4.03
2019-04-01T09:16:55.656Z,4.23
2019-04-01T09:21:57.116Z,4.07
2019-04-01T09:26:58.537Z,5.00
2019-04-01T09:32:00.041Z,5.30
2019-04-01T09:37:01.531Z,4.40
2019-04-01T09:42:03.099Z,4.60
2019-04-01T09:47:04.462Z,4.60
2019-04-01T09:52:05.829Z,4.70
2019-04-01T09:57:17.277Z,5.50
2019-04-01T10:02:10.610Z,5.20
2019-04-01T10:07:11.979Z,5.10
2019-04-01T10:12:13.309Z,5.47
2019-04-01T10:17:14.702Z,4.70
2019-04-01T10:22:16.073Z,6.20
2019-04-01T10:27:17.522Z,5.57
2019-04-01T10:32:18.902Z,6.23
2019-04-01T10:37:20.466Z,5.33
2019-04-01T10:42:21.909Z,6.27
2019-04-01T10:47:23.318Z,5.73
2019-04-01T10:52:24.617Z,6.87
2019-04-01T10:57:26.065Z,6.03
2019-04-01T11:02:27.429Z,5.73
2019-04-01T11:07:28.914Z,7.33
2019-04-01T11:12:30.334Z,6.30
2019-04-01T11:17:31.789Z,6.57
2019-04-01T11:22:33.260Z,6.77
2019-04-01T11:27:34.830Z,7.23
2019-04-01T11:32:36.393Z,7.07
2019-04-01T11:37:37.944Z,7.30
2019-04-01T11:42:40.841Z,7.10
2019-04-01T11:47:42.534Z,8.30
2019-04-01T11:52:43.910Z,7.63
2019-04-01T11:57:45.265Z,8.30
2019-04-01T12:02:46.680Z,8.03
2019-04-01T12:07:48.174Z,8.90
2019-04-01T12:12:49.558Z,7.90
2019-04-01T12:17:50.911Z,8.67
2019-04-01T12:22:52.274Z,9.07
2019-04-01T12:27:53.655Z,7.93
2019-04-01T12:32:55.107Z,8.87
2019-04-01T12:37:56.581Z,8.50
2019-04-01T12:42:57.919Z,10.20
2019-04-01T12:47:59.315Z,10.07
2019-04-01T12:53:00.775Z,10.40
2019-04-01T12:58:02.115Z,10.03
2019-04-01T13:03:03.512Z,10.03
2019-04-01T13:08:04.847Z,9.80
2019-04-01T13:13:06.204Z,9.63
2019-04-01T13:18:07.607Z,9.10
2019-04-01T13:23:09.214Z,9.87
2019-04-01T13:28:10.594Z,9.53
2019-04-01T13:33:11.983Z,10.80
2019-04-01T13:38:15.078Z,9.80
2019-04-01T13:43:17.014Z,10.63
2019-04-01T13:48:18.776Z,9.93
2019-04-01T13:53:20.947Z,10.20
2019-04-01T13:58:22.378Z,9.97
2019-04-01T14:03:23.817Z,10.70
2019-04-01T14:08:25.158Z,10.83
2019-04-01T14:13:26.496Z,10.57
2019-04-01T14:18:27.847Z,11.27
2019-04-01T14:23:29.172Z,10.27
2019-04-01T14:28:30.515Z,10.13
2019-04-01T14:33:32.722Z,9.63
2019-04-01T14:38:34.231Z,10.20
2019-04-01T14:43:35.586Z,9.93
2019-04-01T14:48:36.935Z,11.13
2019-04-01T14:53:38.261Z,9.50
2019-04-01T14:58:39.603Z,10.23
2019-04-01T15:03:40.951Z,10.47
2019-04-01T15:08:43.288Z,10.27
2019-04-01T15:13:44.614Z,10.10
2019-04-01T15:18:45.987Z,10.97
2019-04-01T15:23:47.318Z,10.53
2019-04-01T15:28:48.654Z,11.23
2019-04-01T15:33:50.272Z,11.47
2019-04-01T15:38:52.104Z,11.83
2019-04-01T15:43:53.423Z,10.27
2019-04-01T15:48:54.880Z,9.80
2019-04-01T15:53:56.319Z,9.83
2019-04-01T15:58:57.672Z,10.70
2019-04-01T16:03:59.059Z,8.47
2019-04-01T16:09:00.460Z,10.97
2019-04-01T16:14:02.006Z,10.93
2019-04-01T16:19:03.472Z,10.53
2019-04-01T16:24:04.946Z,10.80
2019-04-01T16:29:06.289Z,9.67
2019-04-01T16:34:07.612Z,11.23
2019-04-01T16:39:09.177Z,10.63
2019-04-01T16:44:10.625Z,10.80
2019-04-01T16:49:12.041Z,9.57
2019-04-01T16:54:13.524Z,11.27
2019-04-01T16:59:14.862Z,10.37
2019-04-01T17:04:17.236Z,10.87
2019-04-01T17:09:18.924Z,10.87
2019-04-01T17:14:20.211Z,11.13
2019-04-01T17:19:21.567Z,10.60
2019-04-01T17:24:22.884Z,10.53
2019-04-01T17:29:25.846Z,10.33
2019-04-01T17:34:27.486Z,9.80
2019-04-01T17:39:28.855Z,10.93
2019-04-01T17:44:30.495Z,11.00
2019-04-01T17:49:31.866Z,11.00
2019-04-01T17:54:33.175Z,9.83
2019-04-01T17:59:34.669Z,9.63
2019-04-01T18:04:36.096Z,10.10
2019-04-01T18:09:37.463Z,11.33
2019-04-01T18:14:38.957Z,9.37
2019-04-01T18:19:40.388Z,9.73
2019-04-01T18:24:41.712Z,10.60
2019-04-01T18:29:43.063Z,10.00
2019-04-01T18:34:44.489Z,11.07
2019-04-01T18:39:48.408Z,10.53
2019-04-01T18:44:49.096Z,11.20
2019-04-01T18:49:50.547Z,11.07
2019-04-01T18:54:51.901Z,11.87
2019-04-01T18:59:53.231Z,11.50
2019-04-01T19:04:54.610Z,12.63
2019-04-01T19:10:05.976Z,11.87
2019-04-01T19:15:02.402Z,12.00
2019-04-01T19:20:05.976Z,12.83
2019-04-01T19:25:07.843Z,12.17
2019-04-01T19:30:10.587Z,12.30
2019-04-01T19:35:12.838Z,12.93
2019-04-01T19:40:14.684Z,12.67
2019-04-01T19:45:16.203Z,13.07
2019-04-01T19:50:19.851Z,11.90
2019-04-01T19:55:21.223Z,12.93
2019-04-01T20:00:27.991Z,12.40
2019-04-01T20:05:26.013Z,13.30
2019-04-01T20:10:28.479Z,13.00
2019-04-01T20:15:30.179Z,13.67
2019-04-01T20:20:31.621Z,13.20
2019-04-01T20:25:32.954Z,13.17
2019-04-01T20:30:35.083Z,14.53
2019-04-01T20:35:36.948Z,13.37
2019-04-01T20:40:38.255Z,13.20
2019-04-01T20:45:39.597Z,13.77
2019-04-01T20:50:40.955Z,13.30
2019-04-01T20:55:47.980Z,15.07
2019-04-01T21:00:45.649Z,14.23
2019-04-01T21:05:47.015Z,14.17
2019-04-01T21:10:48.335Z,14.43
2019-04-01T21:15:49.683Z,14.93
2019-04-01T21:20:51.038Z,15.20
2019-04-01T21:25:52.358Z,14.70
2019-04-01T21:30:53.722Z,14.80
2019-04-01T21:35:55.044Z,14.97
2019-04-01T21:40:56.889Z,15.13
2019-04-01T21:45:58.294Z,15.57
2019-04-01T21:50:59.582Z,15.27
2019-04-01T21:56:00.896Z,14.93
2019-04-01T22:01:02.691Z,15.43
2019-04-01T22:06:04.109Z,15.37
2019-04-01T22:11:06.189Z,14.90
2019-04-01T22:16:07.439Z,14.27
2019-04-01T22:21:08.771Z,15.60
2019-04-01T22:26:10.079Z,14.13
2019-04-01T22:31:11.390Z,15.43
2019-04-01T22:36:12.681Z,14.40
2019-04-01T22:41:14.019Z,16.00
2019-04-01T22:46:15.327Z,14.70
2019-04-01T22:51:16.632Z,14.27
2019-04-01T22:56:17.951Z,17.07
2019-04-01T23:01:19.249Z,16.13
2019-04-01T23:06:20.563Z,15.17
2019-04-01T23:11:21.958Z,15.50
2019-04-01T23:16:23.268Z,17.13
2019-04-01T23:21:24.691Z,15.87
2019-04-01T23:26:26.284Z,16.00
2019-04-01T23:31:27.706Z,16.60
2019-04-01T23:36:29.006Z,17.53
2019-04-01T23:41:30.636Z,16.10
2019-04-01T23:46:32.053Z,16.70
2019-04-01T23:51:33.376Z,16.83
2019-04-01T23:56:34.722Z,17.30
